createdAt,value
2023-09-27T00:00:47.253Z,81.96
2023-09-27T00:03:13.860Z,81.86
2023-09-27T00:05:40.590Z,82.19
2023-09-27T00:08:07.725Z,81.75
2023-09-27T00:10:34.354Z,81.44
2023-09-27T00:13:00.916Z,81.78
2023-09-27T00:15:27.584Z,81.98
2023-09-27T00:17:54.827Z,82.22
2023-09-27T00:20:22.286Z,82.40
2023-09-27T00:22:49.088Z,82.42
2023-09-27T00:25:15.938Z,82.27
2023-09-27T00:27:42.597Z,83.09
2023-09-27T00:30:09.910Z,83.78
2023-09-27T00:32:37.068Z,84.12
2023-09-27T00:35:06.753Z,84.20
2023-09-27T00:37:34.690Z,83.64
2023-09-27T00:40:01.271Z,83.09
2023-09-27T00:42:28.200Z,82.73
2023-09-27T00:44:54.897Z,82.26
2023-09-27T00:47:21.617Z,82.82
2023-09-27T00:49:48.427Z,83.09
2023-09-27T00:52:16.820Z,82.95
2023-09-27T00:54:43.385Z,83.22
2023-09-27T00:57:09.982Z,82.85
2023-09-27T00:59:36.764Z,82.72
2023-09-27T01:02:04.170Z,82.56
2023-09-27T01:04:31.517Z,82.21
2023-09-27T01:06:58.118Z,81.49
2023-09-27T01:09:24.853Z,81.28
2023-09-27T01:11:51.554Z,81.50
2023-09-27T01:14:18.302Z,81.02
2023-09-27T01:16:45.002Z,81.46
2023-09-27T01:19:13.116Z,81.08
2023-09-27T01:21:39.668Z,81.56
2023-09-27T01:24:07.077Z,82.46
2023-09-27T01:26:34.545Z,82.61
2023-09-27T01:29:01.135Z,82.25
2023-09-27T01:31:27.865Z,81.92
2023-09-27T01:33:54.502Z,80.79
2023-09-27T01:36:22.673Z,81.52
2023-09-27T01:38:49.315Z,83.20
2023-09-27T01:41:17.468Z,82.76
2023-09-27T01:43:44.345Z,82.86
2023-09-27T01:46:10.929Z,83.18
2023-09-27T01:48:37.822Z,83.04
2023-09-27T01:51:04.458Z,82.84
2023-09-27T01:53:31.136Z,82.29
2023-09-27T01:55:57.911Z,82.04
2023-09-27T01:58:24.535Z,81.92
2023-09-27T02:00:51.338Z,82.13
2023-09-27T02:03:18.009Z,82.67
2023-09-27T02:05:44.989Z,82.10
2023-09-27T02:08:12.251Z,81.89
2023-09-27T02:10:39.157Z,81.32
2023-09-27T02:13:05.875Z,80.48
2023-09-27T02:15:32.408Z,80.11
2023-09-27T02:17:59.134Z,80.06
2023-09-27T02:20:26.029Z,79.49
2023-09-27T02:22:54.503Z,79.56
2023-09-27T02:25:20.989Z,79.97
2023-09-27T02:27:47.845Z,80.03
2023-09-27T02:30:15.087Z,80.94
2023-09-27T02:32:43.070Z,82.27
2023-09-27T02:35:10.008Z,81.95
2023-09-27T02:37:37.434Z,81.84
2023-09-27T02:40:14.490Z,82.28
2023-09-27T02:42:45.191Z,81.89
2023-09-27T02:45:12.164Z,81.43
2023-09-27T02:47:39.491Z,81.52
2023-09-27T02:50:10.407Z,81.07
2023-09-27T02:52:38.795Z,80.49
2023-09-27T02:55:09.476Z,80.55
2023-09-27T02:57:37.963Z,81.95
2023-09-27T03:00:06.727Z,82.58
2023-09-27T03:02:34.039Z,82.57
2023-09-27T03:05:00.984Z,82.03
2023-09-27T03:07:27.795Z,82.40
2023-09-27T03:09:54.480Z,82.60
2023-09-27T03:12:21.053Z,82.45
2023-09-27T03:14:47.752Z,81.66
2023-09-27T03:17:14.480Z,80.90
2023-09-27T03:19:41.152Z,81.15
2023-09-27T03:22:07.921Z,80.35
2023-09-27T03:24:34.756Z,79.77
2023-09-27T03:27:03.476Z,80.01
2023-09-27T03:29:31.747Z,79.96
2023-09-27T03:31:59.687Z,80.04
2023-09-27T03:34:26.284Z,79.97
2023-09-27T03:36:56.577Z,80.67
2023-09-27T03:39:23.141Z,80.44
2023-09-27T03:41:52.925Z,80.95
2023-09-27T03:44:19.541Z,81.45
2023-09-27T03:46:47.375Z,82.91
2023-09-27T03:49:14.261Z,83.96
2023-09-27T03:51:40.991Z,86.18
2023-09-27T03:54:07.729Z,86.55
2023-09-27T03:56:34.381Z,86.24
2023-09-27T03:59:01.062Z,87.47
2023-09-27T04:01:27.859Z,87.45
2023-09-27T04:03:54.530Z,87.31
2023-09-27T04:06:21.349Z,87.59
2023-09-27T04:08:48.107Z,86.98
2023-09-27T04:11:17.242Z,87.35
2023-09-27T04:13:43.904Z,87.94
2023-09-27T04:16:10.506Z,87.96
2023-09-27T04:18:37.165Z,88.26
2023-09-27T04:21:09.840Z,88.28
2023-09-27T04:23:36.741Z,88.36
2023-09-27T04:26:06.422Z,88.42
2023-09-27T04:28:33.600Z,88.06
2023-09-27T04:31:01.002Z,87.57
2023-09-27T04:33:27.688Z,87.66
2023-09-27T04:35:54.245Z,88.11
2023-09-27T04:38:21.753Z,87.62
2023-09-27T04:40:48.482Z,87.32
2023-09-27T04:43:15.035Z,87.40
2023-09-27T04:45:42.269Z,86.70
2023-09-27T04:48:08.992Z,85.89
2023-09-27T04:50:35.695Z,85.89
2023-09-27T04:53:02.567Z,85.97
2023-09-27T04:55:29.512Z,85.12
2023-09-27T04:57:56.231Z,85.40
2023-09-27T05:00:23.538Z,86.60
2023-09-27T05:02:52.197Z,86.17
2023-09-27T05:05:19.009Z,85.91
2023-09-27T05:07:46.037Z,86.29
2023-09-27T05:10:13.044Z,86.27
2023-09-27T05:12:40.150Z,85.63
2023-09-27T05:15:09.907Z,85.79
2023-09-27T05:17:36.562Z,84.70
2023-09-27T05:20:11.187Z,84.36
2023-09-27T05:22:38.132Z,84.03
2023-09-27T05:25:06.294Z,83.36
2023-09-27T05:27:34.637Z,82.71
2023-09-27T05:30:01.568Z,81.23
2023-09-27T05:32:28.372Z,81.06
2023-09-27T05:34:55.429Z,82.24
2023-09-27T05:37:22.078Z,82.09
2023-09-27T05:39:48.717Z,81.50
2023-09-27T05:42:15.504Z,82.00
2023-09-27T05:44:42.101Z,83.36
2023-09-27T05:47:08.843Z,83.73
2023-09-27T05:49:35.643Z,82.10
2023-09-27T05:52:03.364Z,81.59
2023-09-27T05:54:30.523Z,81.39
2023-09-27T05:56:57.302Z,80.69
2023-09-27T05:59:26.610Z,79.10
2023-09-27T06:01:55.280Z,78.35
2023-09-27T06:04:22.653Z,78.79
2023-09-27T06:06:50.061Z,76.87
2023-09-27T06:09:17.059Z,75.66
2023-09-27T06:11:44.387Z,75.33
2023-09-27T06:14:11.259Z,75.92
2023-09-27T06:16:39.204Z,76.03
2023-09-27T06:19:06.150Z,74.83
2023-09-27T06:21:33.474Z,75.35
2023-09-27T06:24:00.351Z,75.07
2023-09-27T06:26:26.974Z,75.59
2023-09-27T06:28:54.301Z,75.38
2023-09-27T06:31:22.424Z,74.97
2023-09-27T06:33:50.267Z,74.19
2023-09-27T06:36:16.941Z,74.62
2023-09-27T06:38:44.905Z,74.25
2023-09-27T06:41:12.087Z,72.82
2023-09-27T06:43:39.370Z,72.61
2023-09-27T06:46:10.835Z,73.14
2023-09-27T06:48:38.357Z,73.61
2023-09-27T06:51:06.169Z,73.30
2023-09-27T06:53:33.908Z,74.23
2023-09-27T06:56:00.798Z,74.15
2023-09-27T06:58:28.163Z,72.47
2023-09-27T07:00:55.475Z,71.60
2023-09-27T07:03:25.497Z,70.18
2023-09-27T07:05:52.514Z,70.74
2023-09-27T07:08:19.328Z,71.12
2023-09-27T07:10:46.085Z,70.16
2023-09-27T07:13:12.666Z,69.64
2023-09-27T07:15:39.350Z,69.24
2023-09-27T07:18:06.740Z,69.41
2023-09-27T07:20:34.932Z,69.55
2023-09-27T07:23:04.668Z,67.93
2023-09-27T07:25:34.973Z,67.24
2023-09-27T07:28:03.858Z,66.76
2023-09-27T07:30:30.688Z,64.98
2023-09-27T07:32:57.599Z,65.45
2023-09-27T07:35:27.815Z,65.87
2023-09-27T07:37:54.920Z,65.45
2023-09-27T07:40:22.063Z,66.51
2023-09-27T07:42:48.848Z,65.10
2023-09-27T07:45:22.026Z,64.16
2023-09-27T07:47:52.948Z,64.51
2023-09-27T07:50:20.538Z,65.08
2023-09-27T07:52:48.181Z,64.66
2023-09-27T07:55:15.244Z,66.01
2023-09-27T07:57:44.463Z,65.42
2023-09-27T08:00:16.050Z,65.47
2023-09-27T08:02:43.826Z,64.36
2023-09-27T08:05:10.723Z,64.55
2023-09-27T08:07:38.400Z,65.49
2023-09-27T08:10:19.111Z,63.42
2023-09-27T08:12:48.194Z,63.61
2023-09-27T08:15:15.164Z,63.32
2023-09-27T08:17:42.694Z,61.30
2023-09-27T08:20:12.234Z,59.62
2023-09-27T08:22:40.099Z,59.33
2023-09-27T08:25:14.831Z,59.18
2023-09-27T08:27:42.665Z,56.88
2023-09-27T08:30:10.230Z,55.76
2023-09-27T08:32:39.113Z,53.51
2023-09-27T08:35:07.405Z,51.54
2023-09-27T08:37:34.561Z,49.52
2023-09-27T08:40:01.668Z,47.95
2023-09-27T08:42:28.891Z,47.16
2023-09-27T08:44:55.997Z,45.94
2023-09-27T08:47:22.803Z,45.31
2023-09-27T08:49:50.073Z,45.25
2023-09-27T08:52:17.369Z,44.96
2023-09-27T08:54:44.035Z,45.04
2023-09-27T08:57:11.489Z,44.17
2023-09-27T08:59:39.235Z,43.78
2023-09-27T09:02:06.366Z,43.78
2023-09-27T09:04:37.072Z,43.37
2023-09-27T09:07:03.907Z,42.92
2023-09-27T09:09:31.120Z,41.38
2023-09-27T09:12:00.647Z,41.29
2023-09-27T09:14:43.654Z,41.09
2023-09-27T09:17:18.405Z,40.56
2023-09-27T09:20:03.320Z,41.12
2023-09-27T09:22:33.937Z,40.73
2023-09-27T09:25:02.870Z,40.03
2023-09-27T09:27:31.499Z,40.43
2023-09-27T09:29:58.276Z,40.00
2023-09-27T09:32:28.132Z,39.51
2023-09-27T09:34:56.397Z,39.80
2023-09-27T09:37:24.594Z,40.08
2023-09-27T09:39:52.286Z,39.36
2023-09-27T09:42:37.121Z,39.04
2023-09-27T09:45:07.604Z,39.31
2023-09-27T09:47:37.496Z,39.07
2023-09-27T09:50:08.709Z,38.67
2023-09-27T09:52:38.643Z,38.66
2023-09-27T09:55:20.097Z,37.85
2023-09-27T09:58:15.510Z,37.93
2023-09-27T10:00:42.866Z,38.06
2023-09-27T10:03:10.351Z,38.28
2023-09-27T10:05:38.598Z,38.44
2023-09-27T10:08:08.080Z,37.95
2023-09-27T10:10:35.563Z,37.76
2023-09-27T10:13:04.830Z,38.09
2023-09-27T10:15:34.708Z,37.61
2023-09-27T10:18:23.025Z,37.11
2023-09-27T10:21:02.301Z,36.63
2023-09-27T10:23:36.396Z,36.78
2023-09-27T10:26:27.721Z,36.28
2023-09-27T10:29:17.018Z,36.22
2023-09-27T10:31:59.326Z,36.01
2023-09-27T10:34:26.104Z,35.53
2023-09-27T10:37:04.658Z,35.24
2023-09-27T10:39:40.000Z,35.01
2023-09-27T10:42:06.884Z,34.81
2023-09-27T10:44:34.458Z,34.79
2023-09-27T10:47:04.522Z,34.63
2023-09-27T10:49:42.043Z,34.07
2023-09-27T10:52:16.203Z,34.13
2023-09-27T10:54:43.113Z,33.53
2023-09-27T10:57:09.869Z,33.84
2023-09-27T10:59:36.629Z,34.40
2023-09-27T11:02:04.235Z,33.70
2023-09-27T11:04:33.105Z,33.91
2023-09-27T11:07:00.265Z,33.54
2023-09-27T11:09:27.645Z,33.53
2023-09-27T11:11:54.943Z,33.30
2023-09-27T11:14:43.820Z,32.95
2023-09-27T11:17:22.861Z,33.07
2023-09-27T11:19:50.156Z,32.58
2023-09-27T11:22:26.576Z,32.63
2023-09-27T11:24:53.369Z,32.47
2023-09-27T11:27:20.460Z,32.49
2023-09-27T11:29:54.075Z,32.81
2023-09-27T11:32:21.436Z,32.41
2023-09-27T11:34:57.504Z,32.60
2023-09-27T11:37:24.966Z,32.58
2023-09-27T11:39:53.008Z,32.35
2023-09-27T11:42:26.434Z,32.58
2023-09-27T11:45:09.600Z,32.56
2023-09-27T11:47:46.819Z,32.03
2023-09-27T11:50:18.030Z,31.94
2023-09-27T11:52:47.196Z,31.78
2023-09-27T11:55:14.397Z,31.86
2023-09-27T11:57:41.385Z,32.09
2023-09-27T12:00:16.031Z,31.93
2023-09-27T12:02:52.077Z,31.99
2023-09-27T12:05:23.852Z,32.52
2023-09-27T12:07:51.118Z,32.63
2023-09-27T12:10:17.953Z,32.43
2023-09-27T12:12:44.703Z,32.49
2023-09-27T12:15:11.431Z,32.91
2023-09-27T12:17:38.341Z,32.43
2023-09-27T12:20:09.189Z,32.01
2023-09-27T12:22:41.137Z,32.50
2023-09-27T12:25:08.461Z,32.42
2023-09-27T12:27:35.296Z,33.03
2023-09-27T12:30:02.134Z,33.27
2023-09-27T12:32:29.018Z,32.64
2023-09-27T12:34:55.795Z,32.27
2023-09-27T12:37:23.227Z,32.33
2023-09-27T12:39:50.042Z,32.69
2023-09-27T12:42:16.732Z,32.10
2023-09-27T12:44:43.444Z,31.88
2023-09-27T12:47:10.636Z,31.91
2023-09-27T12:49:37.419Z,32.12
2023-09-27T12:52:04.330Z,32.23
2023-09-27T12:54:31.181Z,32.44
2023-09-27T12:56:59.697Z,32.27
2023-09-27T12:59:27.113Z,31.85
2023-09-27T13:01:54.994Z,32.04
2023-09-27T13:04:22.187Z,32.29
2023-09-27T13:06:49.037Z,32.65
2023-09-27T13:09:17.824Z,32.79
2023-09-27T13:11:44.608Z,32.78
2023-09-27T13:14:11.410Z,32.98
2023-09-27T13:16:38.375Z,32.90
2023-09-27T13:19:05.358Z,32.45
2023-09-27T13:21:32.123Z,32.39
2023-09-27T13:23:58.840Z,32.15
2023-09-27T13:26:26.551Z,31.87
2023-09-27T13:28:53.570Z,31.90
2023-09-27T13:31:20.434Z,32.07
2023-09-27T13:33:55.098Z,31.87
2023-09-27T13:36:35.703Z,31.64
2023-09-27T13:39:06.244Z,31.71
2023-09-27T13:41:42.364Z,31.72
2023-09-27T13:44:09.136Z,31.48
2023-09-27T13:46:36.006Z,31.72
2023-09-27T13:49:03.683Z,31.50
2023-09-27T13:51:35.300Z,30.97
2023-09-27T13:54:12.706Z,31.28
2023-09-27T13:56:39.448Z,31.34
2023-09-27T13:59:06.704Z,31.34
2023-09-27T14:01:33.699Z,31.23
2023-09-27T14:04:01.549Z,31.29
2023-09-27T14:06:28.502Z,30.85
2023-09-27T14:08:55.788Z,31.19
2023-09-27T14:11:23.109Z,31.30
2023-09-27T14:13:49.887Z,31.48
2023-09-27T14:16:19.665Z,31.94
2023-09-27T14:18:46.729Z,31.90
2023-09-27T14:21:13.964Z,31.85
2023-09-27T14:23:42.471Z,32.05
2023-09-27T14:26:09.711Z,31.74
2023-09-27T14:28:36.564Z,31.60
2023-09-27T14:31:03.275Z,31.56
2023-09-27T14:33:30.106Z,31.04
2023-09-27T14:35:57.004Z,31.45
2023-09-27T14:38:23.577Z,31.54
2023-09-27T14:40:50.280Z,31.77
2023-09-27T14:43:16.939Z,31.49
2023-09-27T14:45:43.544Z,31.53
2023-09-27T14:48:10.594Z,31.92
2023-09-27T14:50:37.526Z,32.40
2023-09-27T14:53:04.300Z,32.58
2023-09-27T14:55:31.016Z,32.74
2023-09-27T14:57:57.816Z,32.89
2023-09-27T15:00:24.783Z,33.37
2023-09-27T15:02:54.619Z,34.08
2023-09-27T15:05:21.493Z,34.37
2023-09-27T15:07:48.734Z,35.06
2023-09-27T15:10:15.734Z,35.48
2023-09-27T15:12:42.634Z,35.91
2023-09-27T15:15:11.726Z,36.14
2023-09-27T15:17:42.480Z,36.47
2023-09-27T15:20:10.089Z,36.55
2023-09-27T15:22:39.014Z,36.64
2023-09-27T15:25:07.183Z,36.98
2023-09-27T15:27:34.017Z,37.17
2023-09-27T15:30:00.665Z,37.56
2023-09-27T15:32:28.946Z,37.91
2023-09-27T15:34:55.855Z,38.54
2023-09-27T15:37:22.568Z,38.92
2023-09-27T15:39:49.298Z,39.17
2023-09-27T15:42:16.004Z,39.57
2023-09-27T15:44:42.686Z,39.87
2023-09-27T15:47:12.515Z,40.16
2023-09-27T15:49:39.620Z,40.57
2023-09-27T15:52:06.358Z,40.90
2023-09-27T15:54:33.629Z,41.23
2023-09-27T15:57:00.230Z,41.63
2023-09-27T15:59:26.791Z,42.04
2023-09-27T16:01:53.617Z,42.63
2023-09-27T16:04:20.405Z,43.09
2023-09-27T16:06:47.340Z,43.37
2023-09-27T16:09:15.852Z,43.78
2023-09-27T16:11:44.131Z,44.47
2023-09-27T16:14:12.254Z,45.11
2023-09-27T16:16:39.142Z,45.52
2023-09-27T16:19:15.761Z,45.93
2023-09-27T16:21:42.395Z,46.54
2023-09-27T16:24:09.181Z,46.66
2023-09-27T16:26:35.940Z,47.39
2023-09-27T16:29:03.361Z,47.98
2023-09-27T16:31:33.014Z,48.28
2023-09-27T16:33:59.876Z,48.06
2023-09-27T16:36:26.798Z,48.12
2023-09-27T16:38:53.849Z,48.36
2023-09-27T16:41:20.806Z,48.34
2023-09-27T16:43:47.996Z,47.97
2023-09-27T16:46:14.740Z,47.67
2023-09-27T16:48:41.562Z,47.08
2023-09-27T16:51:08.317Z,46.99
2023-09-27T16:53:35.091Z,46.85
2023-09-27T16:56:01.819Z,46.38
2023-09-27T16:58:28.845Z,46.35
2023-09-27T17:01:00.352Z,46.34
2023-09-27T17:03:27.698Z,46.03
2023-09-27T17:05:54.478Z,45.58
2023-09-27T17:08:21.259Z,45.63
2023-09-27T17:10:48.142Z,45.87
2023-09-27T17:13:14.987Z,45.86
2023-09-27T17:15:44.691Z,45.58
2023-09-27T17:18:11.552Z,45.27
2023-09-27T17:20:38.499Z,45.80
2023-09-27T17:23:05.161Z,46.56
2023-09-27T17:25:32.011Z,46.97
2023-09-27T17:27:59.889Z,46.94
2023-09-27T17:30:26.467Z,47.14
2023-09-27T17:32:53.418Z,47.46
2023-09-27T17:35:21.176Z,47.90
2023-09-27T17:37:48.005Z,47.91
2023-09-27T17:40:15.677Z,48.14
2023-09-27T17:42:44.939Z,47.76
2023-09-27T17:45:12.402Z,48.57
2023-09-27T17:47:39.378Z,48.84
2023-09-27T17:50:06.426Z,48.47
2023-09-27T17:52:35.560Z,48.37
2023-09-27T17:55:03.525Z,48.12
2023-09-27T17:57:30.361Z,47.94
2023-09-27T18:00:02.996Z,47.82
2023-09-27T18:02:32.707Z,47.61
2023-09-27T18:04:59.692Z,47.36
2023-09-27T18:07:26.810Z,47.69
2023-09-27T18:09:53.709Z,47.99
2023-09-27T18:12:20.463Z,47.69
2023-09-27T18:14:47.166Z,47.66
2023-09-27T18:17:13.958Z,47.53
2023-09-27T18:19:40.867Z,47.75
2023-09-27T18:22:07.615Z,47.90
2023-09-27T18:24:34.445Z,48.20
2023-09-27T18:27:01.151Z,48.45
2023-09-27T18:29:28.944Z,48.68
2023-09-27T18:31:55.766Z,48.47
2023-09-27T18:34:22.471Z,48.21
2023-09-27T18:36:49.413Z,48.09
2023-09-27T18:39:16.108Z,47.79
2023-09-27T18:41:43.763Z,47.59
2023-09-27T18:44:12.123Z,47.02
2023-09-27T18:46:40.468Z,46.89
2023-09-27T18:49:07.217Z,46.78
2023-09-27T18:51:33.967Z,46.89
2023-09-27T18:54:00.668Z,46.90
2023-09-27T18:56:27.378Z,47.21
2023-09-27T18:58:58.984Z,47.29
2023-09-27T19:01:26.297Z,47.52
2023-09-27T19:03:53.834Z,47.47
2023-09-27T19:06:20.837Z,47.42
2023-09-27T19:08:48.437Z,47.57
2023-09-27T19:11:19.002Z,47.66
2023-09-27T19:13:45.811Z,47.41
2023-09-27T19:16:12.646Z,47.46
2023-09-27T19:18:39.341Z,47.43
2023-09-27T19:21:06.062Z,47.19
2023-09-27T19:23:32.784Z,47.27
2023-09-27T19:25:59.479Z,47.15
2023-09-27T19:28:26.383Z,47.02
2023-09-27T19:30:53.151Z,47.14
2023-09-27T19:33:19.898Z,47.32
2023-09-27T19:35:46.620Z,47.37
2023-09-27T19:38:13.764Z,47.87
2023-09-27T19:40:40.519Z,47.74
2023-09-27T19:43:07.261Z,47.85
2023-09-27T19:45:34.014Z,47.95
2023-09-27T19:48:01.313Z,47.92
2023-09-27T19:50:28.136Z,47.82
2023-09-27T19:52:55.051Z,48.12
2023-09-27T19:55:21.782Z,48.07
2023-09-27T19:57:48.526Z,47.96
2023-09-27T20:00:18.815Z,48.08
2023-09-27T20:02:46.790Z,48.41
2023-09-27T20:05:13.514Z,48.66
2023-09-27T20:07:45.889Z,48.76
2023-09-27T20:10:12.612Z,48.75
2023-09-27T20:12:39.352Z,48.44
2023-09-27T20:15:08.907Z,48.41
2023-09-27T20:17:36.174Z,48.32
2023-09-27T20:20:03.501Z,48.59
2023-09-27T20:22:30.284Z,48.55
2023-09-27T20:24:58.093Z,48.65
2023-09-27T20:27:24.916Z,48.30
2023-09-27T20:29:51.500Z,48.29
2023-09-27T20:32:18.625Z,48.40
2023-09-27T20:34:45.228Z,48.71
2023-09-27T20:37:11.989Z,48.53
2023-09-27T20:39:39.762Z,48.49
2023-09-27T20:42:06.532Z,48.51
2023-09-27T20:44:33.166Z,48.18
2023-09-27T20:46:59.753Z,48.21
2023-09-27T20:49:26.580Z,49.33
2023-09-27T20:51:53.187Z,49.68
2023-09-27T20:54:19.755Z,49.54
2023-09-27T20:56:46.507Z,50.00
2023-09-27T20:59:13.201Z,50.45
2023-09-27T21:01:41.200Z,50.52
2023-09-27T21:04:08.055Z,50.38
2023-09-27T21:06:34.689Z,50.33
2023-09-27T21:09:03.608Z,50.54
2023-09-27T21:11:30.382Z,50.84
2023-09-27T21:13:58.058Z,51.91
2023-09-27T21:16:25.203Z,52.06
2023-09-27T21:18:52.200Z,52.40
2023-09-27T21:21:19.080Z,52.51
2023-09-27T21:23:45.795Z,52.84
2023-09-27T21:26:12.605Z,53.29
2023-09-27T21:28:39.605Z,53.57
2023-09-27T21:31:06.658Z,53.70
2023-09-27T21:33:39.369Z,54.01
2023-09-27T21:36:06.369Z,54.34
2023-09-27T21:38:34.042Z,54.63
2023-09-27T21:41:00.812Z,54.62
2023-09-27T21:43:27.952Z,55.00
2023-09-27T21:45:54.770Z,54.63
2023-09-27T21:48:27.431Z,54.84
2023-09-27T21:50:54.000Z,55.14
2023-09-27T21:53:20.612Z,55.17
2023-09-27T21:55:47.288Z,55.47
2023-09-27T21:58:13.917Z,55.78
2023-09-27T22:00:40.614Z,56.14
2023-09-27T22:03:08.733Z,56.74
2023-09-27T22:05:35.537Z,56.82
2023-09-27T22:08:02.395Z,56.98
2023-09-27T22:10:34.903Z,56.97
2023-09-27T22:13:21.413Z,57.11
2023-09-27T22:15:49.547Z,57.09
2023-09-27T22:18:16.570Z,57.36
2023-09-27T22:20:47.816Z,58.04
2023-09-27T22:23:39.363Z,58.88
2023-09-27T22:26:08.742Z,58.58
2023-09-27T22:28:35.492Z,58.93
2023-09-27T22:31:02.454Z,58.76
2023-09-27T22:33:33.521Z,58.86
2023-09-27T22:36:00.472Z,58.97
2023-09-27T22:38:27.192Z,58.54
2023-09-27T22:40:54.157Z,58.94
2023-09-27T22:43:20.814Z,59.37
2023-09-27T22:45:50.473Z,59.68
2023-09-27T22:48:18.149Z,59.67
2023-09-27T22:50:46.009Z,59.93
2023-09-27T22:53:16.570Z,59.64
2023-09-27T22:55:44.272Z,59.83
2023-09-27T22:58:11.041Z,60.80
2023-09-27T23:00:41.459Z,60.77
2023-09-27T23:03:14.064Z,60.49
2023-09-27T23:05:50.484Z,60.43
2023-09-27T23:08:26.577Z,61.23
2023-09-27T23:10:57.371Z,61.55
2023-09-27T23:13:35.479Z,61.62
2023-09-27T23:16:22.575Z,62.06
2023-09-27T23:18:49.402Z,62.03
2023-09-27T23:21:25.268Z,62.39
2023-09-27T23:23:58.333Z,62.56
2023-09-27T23:26:47.306Z,62.50
2023-09-27T23:29:29.784Z,62.64
2023-09-27T23:32:22.800Z,63.29
2023-09-27T23:34:49.858Z,63.71
2023-09-27T23:37:18.831Z,63.96
2023-09-27T23:39:47.728Z,64.93
2023-09-27T23:42:24.010Z,65.32
2023-09-27T23:45:08.486Z,65.47
2023-09-27T23:47:43.601Z,65.04
2023-09-27T23:50:17.219Z,65.16
2023-09-27T23:52:48.166Z,65.30
2023-09-27T23:55:16.220Z,66.19
2023-09-27T23:57:47.226Z,66.55
